^^
TXWeather Station Historical Data
Daily Summary for January 15, 2022 Units:  English    Metric   Both
Daily Weekly Monthly Yearly Custom
  High: Low: Average:
Temperature: 61.0 °F 36.0 °F 48.7 °F
Dew Point: 57.0 °F 23.0 °F 34.2 °F
Humidity: 88% 41% 59%
Wind Speed: 32mph 0mph 16.4mph
Wind Gust: 32mph - -
Wind- - WNW
Pressure: 30.2 in 29.9 in -
Precipitation: 0.010 in    
Historical Graphs
 
 
Tabular Data for January 15, 2022
Time Temperature Dew Point Pressure Wind Wind Speed Wind Gust Humidity Rainfall Rate (Hourly) solar
00:04 61.0 °F 56.0 °F 29.9 in SE 3 mph 4 mph 84% 0.000 in 0.00 W/m2
00:09 61.0 °F 56.0 °F 29.9 in SE 3 mph 3 mph 84% 0.000 in 0.00 W/m2
00:14 60.0 °F 56.0 °F 29.9 in SE 3 mph 3 mph 84% 0.000 in 0.00 W/m2
00:19 60.0 °F 56.0 °F 29.9 in SE 3 mph 3 mph 84% 0.000 in 0.00 W/m2
00:24 60.0 °F 56.0 °F 29.9 in SE 3 mph 3 mph 84% 0.000 in 0.00 W/m2
00:29 60.0 °F 56.0 °F 29.9 in SE 4 mph 4 mph 84% 0.000 in 0.00 W/m2
00:34 60.0 °F 55.0 °F 29.9 in SE 2 mph 3 mph 84% 0.000 in 0.00 W/m2
00:39 60.0 °F 55.0 °F 29.9 in SE 3 mph 3 mph 84% 0.000 in 0.00 W/m2
00:44 60.0 °F 55.0 °F 29.9 in SE 3 mph 3 mph 84% 0.000 in 0.00 W/m2
00:49 60.0 °F 55.0 °F 29.9 in SE 2 mph 3 mph 84% 0.000 in 0.00 W/m2
00:54 60.0 °F 56.0 °F 29.9 in SSE 3 mph 3 mph 85% 0.000 in 0.00 W/m2
00:59 60.0 °F 56.0 °F 29.9 in SE 2 mph 3 mph 85% 0.000 in 0.00 W/m2
01:04 60.0 °F 56.0 °F 29.9 in SSE 3 mph 3 mph 85% 0.000 in 0.00 W/m2
01:09 60.0 °F 55.0 °F 29.9 in SSE 4 mph 4 mph 85% 0.000 in 0.00 W/m2
01:14 60.0 °F 55.0 °F 29.9 in SSE 4 mph 4 mph 85% 0.000 in 0.00 W/m2
01:19 60.0 °F 55.0 °F 29.9 in SE 3 mph 4 mph 85% 0.000 in 0.00 W/m2
01:24 60.0 °F 55.0 °F 29.9 in SSE 3 mph 3 mph 85% 0.000 in 0.00 W/m2
01:29 60.0 °F 55.0 °F 29.9 in SSE 4 mph 5 mph 85% 0.000 in 0.00 W/m2
01:34 60.0 °F 55.0 °F 29.9 in SSE 3 mph 3 mph 85% 0.000 in 0.00 W/m2
01:39 60.0 °F 56.0 °F 29.9 in SSE 5 mph 5 mph 86% 0.000 in 0.00 W/m2
01:44 60.0 °F 56.0 °F 29.9 in SSE 5 mph 5 mph 86% 0.000 in 0.00 W/m2
01:49 60.0 °F 56.0 °F 29.9 in SSE 3 mph 4 mph 86% 0.000 in 0.00 W/m2
01:54 60.0 °F 56.0 °F 29.9 in SSE 4 mph 5 mph 86% 0.000 in 0.00 W/m2
01:59 60.0 °F 56.0 °F 29.9 in SSE 4 mph 4 mph 86% 0.000 in 0.00 W/m2
02:04 60.0 °F 56.0 °F 29.9 in South 3 mph 4 mph 86% 0.000 in 0.00 W/m2
02:09 60.0 °F 56.0 °F 29.9 in South 2 mph 2 mph 86% 0.000 in 0.00 W/m2
02:14 60.0 °F 56.0 °F 29.9 in South 2 mph 3 mph 86% 0.000 in 0.00 W/m2
02:19 60.0 °F 56.0 °F 29.9 in South 2 mph 2 mph 86% 0.000 in 0.00 W/m2
02:24 60.0 °F 56.0 °F 29.9 in South 1 mph 1 mph 86% 0.000 in 0.00 W/m2
02:29 60.0 °F 56.0 °F 29.9 in Calm   1 mph 86% 0.000 in 0.00 W/m2
02:34 60.0 °F 55.0 °F 29.9 in South 1 mph 1 mph 86% 0.000 in 0.00 W/m2
02:39 60.0 °F 55.0 °F 29.9 in South 1 mph 1 mph 86% 0.000 in 0.00 W/m2
02:44 60.0 °F 55.0 °F 29.9 in SW 2 mph 3 mph 86% 0.000 in 0.00 W/m2
02:49 60.0 °F 55.0 °F 29.9 in WNW 2 mph 3 mph 86% 0.000 in 0.00 W/m2
02:54 60.0 °F 55.0 °F 29.9 in West 3 mph 3 mph 86% 0.000 in 0.00 W/m2
02:59 60.0 °F 56.0 °F 29.9 in WSW 4 mph 5 mph 87% 0.000 in 0.00 W/m2
03:04 60.0 °F 56.0 °F 29.9 in West 5 mph 5 mph 87% 0.000 in 0.00 W/m2
03:09 60.0 °F 56.0 °F 29.9 in WSW 8 mph 8 mph 87% 0.000 in 0.00 W/m2
03:14 60.0 °F 57.0 °F 29.9 in WSW 9 mph 9 mph 87% 0.000 in 0.00 W/m2
03:19 60.0 °F 57.0 °F 29.9 in WSW 12 mph 12 mph 87% 0.000 in 0.00 W/m2
03:24 61.0 °F 57.0 °F 29.9 in West 9 mph 12 mph 87% 0.000 in 0.00 W/m2
03:29 61.0 °F 57.0 °F 29.9 in West 9 mph 10 mph 87% 0.000 in 0.00 W/m2
03:34 61.0 °F 57.0 °F 29.9 in WSW 7 mph 10 mph 87% 0.000 in 0.00 W/m2
03:39 61.0 °F 57.0 °F 29.9 in WSW 10 mph 10 mph 87% 0.000 in 0.00 W/m2
03:44 61.0 °F 57.0 °F 29.9 in West 7 mph 8 mph 88% 0.000 in 0.00 W/m2
03:49 61.0 °F 57.0 °F 29.9 in WSW 9 mph 10 mph 87% 0.000 in 0.00 W/m2
03:54 61.0 °F 57.0 °F 29.9 in WSW 9 mph 9 mph 87% 0.000 in 0.00 W/m2
03:59 61.0 °F 57.0 °F 29.9 in WNW 11 mph 11 mph 87% 0.000 in 0.00 W/m2
04:04 61.0 °F 57.0 °F 29.9 in WNW 11 mph 11 mph 87% 0.000 in 0.00 W/m2
04:09 60.0 °F 57.0 °F 29.9 in WSW 5 mph 11 mph 88% 0.000 in 0.00 W/m2
04:14 60.0 °F 57.0 °F 29.9 in West 11 mph 11 mph 87% 0.000 in 0.00 W/m2
04:19 60.0 °F 57.0 °F 29.9 in WNW 13 mph 13 mph 87% 0.000 in 0.00 W/m2
04:24 60.0 °F 56.0 °F 29.9 in NW 18 mph 21 mph 87% 0.000 in 0.00 W/m2
04:29 60.0 °F 55.0 °F 29.9 in WNW 18 mph 21 mph 86% 0.000 in 0.00 W/m2
04:34 59.0 °F 53.0 °F 29.9 in NW 12 mph 14 mph 82% 0.000 in 0.00 W/m2
04:39 59.0 °F 51.0 °F 29.9 in NW 15 mph 15 mph 77% 0.000 in 0.00 W/m2
04:44 59.0 °F 49.0 °F 29.9 in WNW 10 mph 12 mph 71% 0.000 in 0.00 W/m2
04:49 58.0 °F 47.0 °F 29.9 in NW 22 mph 24 mph 65% 0.000 in 0.00 W/m2
04:54 58.0 °F 44.0 °F 29.9 in NW 23 mph 26 mph 60% 0.000 in 0.00 W/m2
04:59 58.0 °F 42.0 °F 29.9 in NW 17 mph 23 mph 58% 0.000 in 0.00 W/m2
05:04 57.0 °F 42.0 °F 29.9 in NW 27 mph 27 mph 58% 0.000 in 0.00 W/m2
05:09 57.0 °F 42.0 °F 29.9 in NW 23 mph 27 mph 58% 0.000 in 0.00 W/m2
05:14 56.0 °F 41.0 °F 29.9 in NW 23 mph 23 mph 58% 0.000 in 0.00 W/m2
05:19 55.0 °F 41.0 °F 30.0 in NW 20 mph 23 mph 59% 0.000 in 0.00 W/m2
05:24 55.0 °F 41.0 °F 30.0 in NW 20 mph 23 mph 60% 0.000 in 0.00 W/m2
05:29 55.0 °F 41.0 °F 30.0 in NW 20 mph 23 mph 60% 0.000 in 0.00 W/m2
05:34 54.0 °F 41.0 °F 30.0 in WNW 20 mph 20 mph 60% 0.000 in 0.00 W/m2
05:39 54.0 °F 41.0 °F 30.0 in NW 19 mph 19 mph 60% 0.000 in 0.00 W/m2
05:44 54.0 °F 40.0 °F 30.0 in NW 16 mph 19 mph 60% 0.000 in 0.00 W/m2
05:49 53.0 °F 40.0 °F 30.0 in NW 18 mph 20 mph 61% 0.000 in 0.00 W/m2
05:54 53.0 °F 40.0 °F 30.0 in NW 21 mph 21 mph 61% 0.000 in 0.00 W/m2
05:59 52.0 °F 39.0 °F 30.0 in NW 18 mph 21 mph 61% 0.000 in 0.00 W/m2
06:04 52.0 °F 39.0 °F 30.0 in NW 24 mph 24 mph 61% 0.000 in 0.00 W/m2
06:09 52.0 °F 39.0 °F 30.0 in NW 23 mph 27 mph 61% 0.000 in 0.00 W/m2
06:14 52.0 °F 39.0 °F 30.0 in NNW 18 mph 21 mph 62% 0.000 in 0.00 W/m2
06:19 51.0 °F 39.0 °F 30.0 in NW 18 mph 19 mph 62% 0.000 in 0.00 W/m2
06:24 51.0 °F 39.0 °F 30.0 in NW 18 mph 20 mph 62% 0.000 in 0.00 W/m2
06:29 51.0 °F 38.0 °F 30.0 in NW 19 mph 19 mph 62% 0.000 in 0.00 W/m2
06:34 51.0 °F 38.0 °F 30.0 in NW 16 mph 18 mph 63% 0.000 in 0.00 W/m2
06:39 50.0 °F 38.0 °F 30.0 in NW 18 mph 19 mph 63% 0.000 in 0.00 W/m2
06:44 50.0 °F 38.0 °F 30.0 in NW 15 mph 19 mph 63% 0.000 in 0.00 W/m2
06:49 50.0 °F 38.0 °F 30.0 in NW 17 mph 17 mph 64% 0.000 in 0.00 W/m2
06:54 50.0 °F 38.0 °F 30.0 in NW 27 mph 27 mph 64% 0.000 in 0.00 W/m2
06:59 50.0 °F 38.0 °F 30.0 in NW 26 mph 27 mph 64% 0.000 in 0.00 W/m2
07:04 49.0 °F 38.0 °F 30.0 in NNW 15 mph 26 mph 64% 0.000 in 0.00 W/m2
07:09 49.0 °F 37.0 °F 30.0 in NW 23 mph 23 mph 64% 0.000 in 0.00 W/m2
07:14 49.0 °F 37.0 °F 30.0 in NW 17 mph 17 mph 64% 0.000 in 0.00 W/m2
07:19 49.0 °F 38.0 °F 30.1 in NW 20 mph 21 mph 65% 0.000 in 0.00 W/m2
07:24 49.0 °F 38.0 °F 30.1 in NW 18 mph 24 mph 65% 0.000 in 0.00 W/m2
07:29 49.0 °F 37.0 °F 30.0 in NW 24 mph 26 mph 64% 0.000 in 0.00 W/m2
07:34 48.0 °F 37.0 °F 30.0 in NW 22 mph 24 mph 64% 0.000 in 0.00 W/m2
07:39 48.0 °F 37.0 °F 30.0 in NW 24 mph 24 mph 64% 0.000 in 11.00 W/m2
07:44 48.0 °F 36.0 °F 30.0 in NW 24 mph 27 mph 64% 0.000 in 14.00 W/m2
07:49 48.0 °F 36.0 °F 30.1 in NNW 21 mph 27 mph 64% 0.000 in 23.00 W/m2
07:54 48.0 °F 36.0 °F 30.1 in NW 17 mph 17 mph 64% 0.000 in 25.00 W/m2
07:59 47.0 °F 36.0 °F 30.0 in NW 19 mph 19 mph 64% 0.000 in 25.00 W/m2
08:04 47.0 °F 35.0 °F 30.1 in NW 17 mph 24 mph 64% 0.000 in 23.00 W/m2
08:09 47.0 °F 35.0 °F 30.1 in NW 18 mph 19 mph 64% 0.000 in 19.00 W/m2
08:14 47.0 °F 35.0 °F 30.1 in NW 21 mph 26 mph 64% 0.000 in 19.00 W/m2
08:19 47.0 °F 35.0 °F 30.1 in NW 16 mph 20 mph 64% 0.000 in 19.00 W/m2
08:24 46.0 °F 35.0 °F 30.1 in NW 22 mph 22 mph 64% 0.000 in 21.00 W/m2
08:29 46.0 °F 34.0 °F 30.1 in NW 16 mph 23 mph 63% 0.000 in 30.00 W/m2
08:34 46.0 °F 34.0 °F 30.1 in NW 19 mph 23 mph 63% 0.000 in 39.00 W/m2
08:39 46.0 °F 34.0 °F 30.1 in NW 15 mph 16 mph 63% 0.000 in 46.00 W/m2
08:44 46.0 °F 34.0 °F 30.1 in NW 16 mph 19 mph 63% 0.000 in 63.00 W/m2
08:49 46.0 °F 34.0 °F 30.1 in NW 16 mph 19 mph 62% 0.000 in 91.00 W/m2
08:54 46.0 °F 33.0 °F 30.1 in NW 20 mph 20 mph 61% 0.000 in 100.00 W/m2
08:59 46.0 °F 33.0 °F 30.1 in NW 20 mph 20 mph 61% 0.000 in 95.00 W/m2
09:04 46.0 °F 33.0 °F 30.1 in NW 19 mph 24 mph 60% 0.000 in 91.00 W/m2
09:09 46.0 °F 33.0 °F 30.1 in NW 18 mph 20 mph 60% 0.000 in 81.00 W/m2
09:14 46.0 °F 33.0 °F 30.1 in NW 15 mph 21 mph 59% 0.000 in 97.00 W/m2
09:19 46.0 °F 32.0 °F 30.1 in NW 20 mph 21 mph 59% 0.000 in 116.00 W/m2
09:24 46.0 °F 32.0 °F 30.1 in NW 20 mph 24 mph 59% 0.000 in 125.00 W/m2
09:29 46.0 °F 32.0 °F 30.1 in NW 25 mph 25 mph 58% 0.000 in 120.00 W/m2
09:34 46.0 °F 32.0 °F 30.1 in NW 17 mph 19 mph 58% 0.000 in 144.00 W/m2
09:39 46.0 °F 32.0 °F 30.1 in NW 16 mph 17 mph 58% 0.000 in 176.00 W/m2
09:44 46.0 °F 32.0 °F 30.1 in NW 23 mph 23 mph 58% 0.000 in 181.00 W/m2
09:49 46.0 °F 32.0 °F 30.1 in NW 21 mph 23 mph 57% 0.000 in 171.00 W/m2
09:54 46.0 °F 32.0 °F 30.1 in NW 23 mph 23 mph 57% 0.000 in 281.00 W/m2
09:59 47.0 °F 32.0 °F 30.1 in NW 20 mph 23 mph 57% 0.000 in 373.00 W/m2
10:04 47.0 °F 32.0 °F 30.1 in NW 19 mph 24 mph 57% 0.000 in 250.00 W/m2
10:09 47.0 °F 32.0 °F 30.1 in NW 19 mph 21 mph 56% 0.000 in 302.00 W/m2
10:14 47.0 °F 32.0 °F 30.1 in NW 27 mph 28 mph 56% 0.000 in 237.00 W/m2
10:19 47.0 °F 32.0 °F 30.1 in NNW 24 mph 25 mph 56% 0.000 in 323.00 W/m2
10:24 48.0 °F 33.0 °F 30.1 in NW 22 mph 23 mph 56% 0.000 in 323.00 W/m2
10:29 48.0 °F 33.0 °F 30.1 in NNW 13 mph 23 mph 56% 0.000 in 492.00 W/m2
10:34 49.0 °F 33.0 °F 30.1 in NW 22 mph 26 mph 55% 0.000 in 559.00 W/m2
10:39 49.0 °F 33.0 °F 30.1 in NW 24 mph 24 mph 54% 0.000 in 262.00 W/m2
10:44 48.0 °F 33.0 °F 30.1 in NW 21 mph 21 mph 55% 0.000 in 345.00 W/m2
10:49 48.0 °F 33.0 °F 30.1 in NW 22 mph 22 mph 55% 0.000 in 345.00 W/m2
10:54 48.0 °F 33.0 °F 30.1 in NW 18 mph 22 mph 56% 0.000 in 322.00 W/m2
10:59 48.0 °F 33.0 °F 30.1 in NW 17 mph 18 mph 57% 0.000 in 325.00 W/m2
11:04 48.0 °F 33.0 °F 30.1 in NW 25 mph 25 mph 56% 0.000 in 214.00 W/m2
11:09 48.0 °F 32.0 °F 30.1 in NW 21 mph 24 mph 54% 0.000 in 220.00 W/m2
11:14 47.0 °F 32.0 °F 30.1 in NW 18 mph 18 mph 55% 0.000 in 264.00 W/m2
11:19 48.0 °F 32.0 °F 30.1 in NW 23 mph 26 mph 55% 0.000 in 687.00 W/m2
11:24 48.0 °F 31.0 °F 30.1 in WNW 21 mph 23 mph 53% 0.000 in 656.00 W/m2
11:29 48.0 °F 31.0 °F 30.1 in WNW 21 mph 21 mph 52% 0.000 in 642.00 W/m2
11:34 48.0 °F 30.0 °F 30.1 in WNW 23 mph 24 mph 50% 0.000 in 705.00 W/m2
11:39 48.0 °F 29.0 °F 30.1 in NW 30 mph 30 mph 48% 0.000 in 714.00 W/m2
11:44 48.0 °F 29.0 °F 30.1 in WNW 21 mph 21 mph 48% 0.000 in 647.00 W/m2
11:49 48.0 °F 29.0 °F 30.1 in NW 20 mph 22 mph 48% 0.000 in 719.00 W/m2
11:54 48.0 °F 29.0 °F 30.1 in NW 21 mph 23 mph 48% 0.000 in 668.00 W/m2
11:59 48.0 °F 29.0 °F 30.1 in NNW 25 mph 30 mph 47% 0.000 in 661.00 W/m2
12:04 48.0 °F 29.0 °F 30.1 in NW 20 mph 25 mph 48% 0.000 in 663.00 W/m2
12:09 48.0 °F 28.0 °F 30.1 in NW 29 mph 30 mph 46% 0.010 in 638.00 W/m2
12:14 48.0 °F 28.0 °F 30.1 in NW 24 mph 30 mph 46% 0.010 in 673.00 W/m2
12:19 48.0 °F 28.0 °F 30.1 in NNW 24 mph 24 mph 46% 0.010 in 577.00 W/m2
12:24 48.0 °F 29.0 °F 30.1 in NNW 20 mph 26 mph 48% 0.010 in 698.00 W/m2
12:29 48.0 °F 29.0 °F 30.1 in WNW 19 mph 20 mph 47% 0.010 in 698.00 W/m2
12:34 49.0 °F 30.0 °F 30.1 in NW 20 mph 22 mph 47% 0.010 in 682.00 W/m2
12:39 49.0 °F 30.0 °F 30.1 in NW 23 mph 23 mph 47% 0.010 in 673.00 W/m2
12:44 49.0 °F 29.0 °F 30.1 in NW 17 mph 23 mph 46% 0.010 in 670.00 W/m2
12:49 49.0 °F 29.0 °F 30.1 in NW 21 mph 21 mph 46% 0.010 in 659.00 W/m2
12:54 49.0 °F 29.0 °F 30.1 in NW 24 mph 24 mph 46% 0.010 in 494.00 W/m2
12:59 49.0 °F 29.0 °F 30.1 in NW 22 mph 22 mph 46% 0.010 in 671.00 W/m2
13:04 50.0 °F 29.0 °F 30.1 in NW 16 mph 23 mph 45% 0.010 in 671.00 W/m2
13:09 50.0 °F 29.0 °F 30.1 in NW 24 mph 24 mph 45% 0.010 in 668.00 W/m2
13:14 49.0 °F 28.0 °F 30.1 in NW 22 mph 24 mph 44% 0.000 in 668.00 W/m2
13:19 49.0 °F 28.0 °F 30.1 in NW 24 mph 25 mph 44% 0.000 in 664.00 W/m2
13:24 49.0 °F 28.0 °F 30.1 in NW 22 mph 25 mph 44% 0.000 in 657.00 W/m2
13:29 49.0 °F 28.0 °F 30.1 in NW 30 mph 30 mph 44% 0.000 in 656.00 W/m2
13:34 49.0 °F 27.0 °F 30.1 in NNW 27 mph 28 mph 43% 0.000 in 650.00 W/m2
13:39 49.0 °F 27.0 °F 30.1 in NNW 23 mph 24 mph 43% 0.000 in 643.00 W/m2
13:44 49.0 °F 28.0 °F 30.1 in NW 23 mph 24 mph 43% 0.000 in 643.00 W/m2
13:49 49.0 °F 28.0 °F 30.1 in NNW 29 mph 29 mph 43% 0.000 in 636.00 W/m2
13:54 49.0 °F 28.0 °F 30.1 in NW 20 mph 29 mph 43% 0.000 in 633.00 W/m2
13:59 50.0 °F 28.0 °F 30.1 in NW 22 mph 22 mph 43% 0.000 in 624.00 W/m2
14:04 50.0 °F 28.0 °F 30.1 in NW 20 mph 28 mph 43% 0.000 in 621.00 W/m2
14:09 49.0 °F 27.0 °F 30.1 in NW 22 mph 28 mph 42% 0.000 in 608.00 W/m2
14:14 49.0 °F 28.0 °F 30.1 in NW 20 mph 20 mph 43% 0.000 in 598.00 W/m2
14:19 50.0 °F 27.0 °F 30.1 in NW 18 mph 21 mph 42% 0.000 in 589.00 W/m2
14:24 50.0 °F 28.0 °F 30.1 in NW 21 mph 21 mph 42% 0.000 in 578.00 W/m2
14:29 50.0 °F 28.0 °F 30.1 in NW 23 mph 23 mph 42% 0.000 in 568.00 W/m2
14:34 50.0 °F 28.0 °F 30.1 in NW 19 mph 20 mph 42% 0.000 in 561.00 W/m2
14:39 50.0 °F 27.0 °F 30.1 in NW 19 mph 21 mph 42% 0.000 in 548.00 W/m2
14:44 50.0 °F 28.0 °F 30.1 in NW 23 mph 23 mph 43% 0.000 in 536.00 W/m2
14:49 50.0 °F 28.0 °F 30.1 in WNW 20 mph 20 mph 43% 0.000 in 524.00 W/m2
14:54 50.0 °F 27.0 °F 30.1 in NW 21 mph 23 mph 41% 0.000 in 504.00 W/m2
14:59 49.0 °F 26.0 °F 30.1 in NW 22 mph 22 mph 41% 0.000 in 499.00 W/m2
15:04 49.0 °F 27.0 °F 30.1 in NW 14 mph 19 mph 42% 0.000 in 492.00 W/m2
15:09 49.0 °F 27.0 °F 30.1 in NW 17 mph 18 mph 42% 0.000 in 473.00 W/m2
15:14 49.0 °F 27.0 °F 30.1 in NNW 22 mph 26 mph 42% 0.000 in 461.00 W/m2
15:19 49.0 °F 26.0 °F 30.1 in NNW 20 mph 22 mph 42% 0.000 in 441.00 W/m2
15:24 49.0 °F 26.0 °F 30.1 in NNW 20 mph 29 mph 42% 0.000 in 432.00 W/m2
15:29 49.0 °F 26.0 °F 30.1 in NW 24 mph 32 mph 41% 0.000 in 410.00 W/m2
15:34 48.0 °F 26.0 °F 30.1 in NW 25 mph 25 mph 41% 0.000 in 403.00 W/m2
15:39 48.0 °F 25.0 °F 30.1 in NW 23 mph 25 mph 41% 0.000 in 387.00 W/m2
15:44 48.0 °F 26.0 °F 30.1 in NW 18 mph 18 mph 42% 0.000 in 369.00 W/m2
15:49 48.0 °F 26.0 °F 30.1 in NW 15 mph 18 mph 42% 0.000 in 352.00 W/m2
15:54 48.0 °F 26.0 °F 30.1 in NW 23 mph 23 mph 42% 0.000 in 341.00 W/m2
15:59 48.0 °F 26.0 °F 30.1 in NW 16 mph 20 mph 42% 0.000 in 325.00 W/m2
16:04 48.0 °F 26.0 °F 30.1 in NW 25 mph 29 mph 42% 0.000 in 309.00 W/m2
16:09 48.0 °F 26.0 °F 30.1 in NW 24 mph 25 mph 42% 0.000 in 295.00 W/m2
16:14 47.0 °F 25.0 °F 30.1 in NW 24 mph 25 mph 42% 0.000 in 278.00 W/m2
16:19 47.0 °F 25.0 °F 30.1 in NNW 20 mph 22 mph 42% 0.000 in 230.00 W/m2
16:24 47.0 °F 25.0 °F 30.1 in NW 27 mph 27 mph 42% 0.000 in 121.00 W/m2
16:29 47.0 °F 25.0 °F 30.1 in NW 14 mph 21 mph 42% 0.000 in 72.00 W/m2
16:34 47.0 °F 25.0 °F 30.1 in WNW 16 mph 21 mph 42% 0.000 in 105.00 W/m2
16:39 47.0 °F 25.0 °F 30.1 in NW 19 mph 22 mph 42% 0.000 in 65.00 W/m2
16:44 47.0 °F 25.0 °F 30.1 in NW 32 mph 32 mph 42% 0.000 in 49.00 W/m2
16:49 46.0 °F 24.0 °F 30.1 in NW 20 mph 26 mph 42% 0.000 in 49.00 W/m2
16:54 46.0 °F 24.0 °F 30.1 in NW 25 mph 28 mph 42% 0.000 in 35.00 W/m2
16:59 46.0 °F 24.0 °F 30.1 in NW 21 mph 27 mph 42% 0.000 in 33.00 W/m2
17:04 46.0 °F 24.0 °F 30.1 in NW 17 mph 21 mph 43% 0.000 in 40.00 W/m2
17:09 46.0 °F 24.0 °F 30.1 in WNW 15 mph 18 mph 43% 0.000 in 40.00 W/m2
17:14 46.0 °F 24.0 °F 30.1 in NW 20 mph 20 mph 43% 0.000 in 30.00 W/m2
17:19 46.0 °F 24.0 °F 30.1 in NW 20 mph 21 mph 43% 0.000 in 30.00 W/m2
17:24 45.0 °F 24.0 °F 30.1 in NW 19 mph 19 mph 43% 0.000 in 18.00 W/m2
17:29 45.0 °F 24.0 °F 30.1 in NW 23 mph 23 mph 43% 0.000 in 14.00 W/m2
17:34 45.0 °F 24.0 °F 30.1 in NW 17 mph 17 mph 44% 0.000 in 12.00 W/m2
17:39 44.0 °F 24.0 °F 30.1 in NW 15 mph 21 mph 44% 0.000 in 9.00 W/m2
17:44 44.0 °F 24.0 °F 30.1 in NW 16 mph 16 mph 45% 0.000 in 5.00 W/m2
17:49 44.0 °F 24.0 °F 30.1 in NW 19 mph 19 mph 45% 0.000 in 0.00 W/m2
17:54 44.0 °F 24.0 °F 30.1 in NW 17 mph 19 mph 45% 0.000 in 0.00 W/m2
17:59 44.0 °F 24.0 °F 30.2 in NW 16 mph 18 mph 45% 0.000 in 0.00 W/m2
18:04 44.0 °F 24.0 °F 30.2 in NW 14 mph 16 mph 45% 0.000 in 0.00 W/m2
18:09 44.0 °F 24.0 °F 30.2 in NW 13 mph 18 mph 45% 0.000 in 0.00 W/m2
18:14 43.0 °F 24.0 °F 30.2 in NW 11 mph 14 mph 46% 0.000 in 0.00 W/m2
18:19 43.0 °F 24.0 °F 30.2 in NW 17 mph 17 mph 46% 0.000 in 0.00 W/m2
18:24 43.0 °F 24.0 °F 30.2 in NW 18 mph 18 mph 46% 0.000 in 0.00 W/m2
18:29 43.0 °F 24.0 °F 30.2 in NW 18 mph 18 mph 46% 0.000 in 0.00 W/m2
18:34 43.0 °F 23.0 °F 30.2 in NW 12 mph 12 mph 46% 0.000 in 0.00 W/m2
18:39 43.0 °F 23.0 °F 30.2 in NW 16 mph 18 mph 46% 0.000 in 0.00 W/m2
18:44 42.0 °F 24.0 °F 30.2 in NW 18 mph 18 mph 47% 0.000 in 0.00 W/m2
18:49 42.0 °F 24.0 °F 30.2 in NW 16 mph 16 mph 47% 0.000 in 0.00 W/m2
18:54 42.0 °F 24.0 °F 30.2 in NW 12 mph 12 mph 47% 0.000 in 0.00 W/m2
18:59 42.0 °F 24.0 °F 30.2 in NW 16 mph 16 mph 48% 0.000 in 0.00 W/m2
19:04 42.0 °F 23.0 °F 30.2 in NW 14 mph 16 mph 47% 0.000 in 0.00 W/m2
19:09 42.0 °F 23.0 °F 30.2 in NW 15 mph 15 mph 47% 0.000 in 0.00 W/m2
19:14 42.0 °F 23.0 °F 30.2 in NW 13 mph 15 mph 47% 0.000 in 0.00 W/m2
19:19 42.0 °F 23.0 °F 30.2 in NW 18 mph 18 mph 47% 0.000 in 0.00 W/m2
19:24 42.0 °F 24.0 °F 30.2 in NW 15 mph 15 mph 48% 0.000 in 0.00 W/m2
19:29 42.0 °F 23.0 °F 30.2 in NW 16 mph 18 mph 48% 0.000 in 0.00 W/m2
19:34 42.0 °F 23.0 °F 30.2 in NW 15 mph 15 mph 48% 0.000 in 0.00 W/m2
19:39 41.0 °F 23.0 °F 30.2 in NW 16 mph 16 mph 48% 0.000 in 0.00 W/m2
19:44 41.0 °F 23.0 °F 30.2 in NW 14 mph 16 mph 48% 0.000 in 0.00 W/m2
19:49 41.0 °F 24.0 °F 30.2 in NW 18 mph 18 mph 49% 0.000 in 0.00 W/m2
19:54 41.0 °F 24.0 °F 30.2 in NW 12 mph 18 mph 49% 0.000 in 0.00 W/m2
19:59 41.0 °F 24.0 °F 30.2 in WNW 12 mph 14 mph 49% 0.000 in 0.00 W/m2
20:04 41.0 °F 23.0 °F 30.2 in NW 16 mph 16 mph 49% 0.000 in 0.00 W/m2
20:09 41.0 °F 24.0 °F 30.2 in NW 13 mph 15 mph 50% 0.000 in 0.00 W/m2
20:14 41.0 °F 24.0 °F 30.2 in NW 18 mph 25 mph 50% 0.000 in 0.00 W/m2
20:19 41.0 °F 23.0 °F 30.2 in NW 19 mph 22 mph 49% 0.000 in 0.00 W/m2
20:24 41.0 °F 23.0 °F 30.2 in NW 13 mph 25 mph 49% 0.000 in 0.00 W/m2
20:29 41.0 °F 23.0 °F 30.2 in NW 14 mph 15 mph 49% 0.000 in 0.00 W/m2
20:34 41.0 °F 23.0 °F 30.2 in NW 18 mph 19 mph 49% 0.000 in 0.00 W/m2
20:39 41.0 °F 23.0 °F 30.2 in NW 18 mph 19 mph 50% 0.000 in 0.00 W/m2
20:44 40.0 °F 23.0 °F 30.2 in NW 23 mph 23 mph 50% 0.000 in 0.00 W/m2
20:49 40.0 °F 23.0 °F 30.2 in NW 15 mph 23 mph 50% 0.000 in 0.00 W/m2
20:54 40.0 °F 23.0 °F 30.2 in NW 15 mph 19 mph 51% 0.000 in 0.00 W/m2
20:59 40.0 °F 23.0 °F 30.2 in NW 16 mph 19 mph 51% 0.000 in 0.00 W/m2
21:04 40.0 °F 23.0 °F 30.2 in NW 18 mph 18 mph 51% 0.000 in 0.00 W/m2
21:09 39.0 °F 23.0 °F 30.2 in NW 15 mph 16 mph 51% 0.000 in 0.00 W/m2
21:14 39.0 °F 23.0 °F 30.2 in NW 15 mph 15 mph 52% 0.000 in 0.00 W/m2
21:19 39.0 °F 23.0 °F 30.2 in NW 13 mph 18 mph 52% 0.000 in 0.00 W/m2
21:24 39.0 °F 23.0 °F 30.2 in WNW 14 mph 15 mph 52% 0.000 in 0.00 W/m2
21:29 39.0 °F 23.0 °F 30.2 in NW 16 mph 18 mph 53% 0.000 in 0.00 W/m2
21:34 39.0 °F 23.0 °F 30.2 in NW 17 mph 18 mph 53% 0.000 in 0.00 W/m2
21:39 39.0 °F 23.0 °F 30.2 in NW 17 mph 19 mph 53% 0.000 in 0.00 W/m2
21:44 39.0 °F 23.0 °F 30.2 in NW 17 mph 17 mph 53% 0.000 in 0.00 W/m2
21:49 39.0 °F 23.0 °F 30.2 in NW 19 mph 21 mph 53% 0.000 in 0.00 W/m2
21:54 39.0 °F 23.0 °F 30.2 in NW 15 mph 15 mph 54% 0.000 in 0.00 W/m2
21:59 38.0 °F 23.0 °F 30.2 in NW 15 mph 21 mph 54% 0.000 in 0.00 W/m2
22:04 38.0 °F 23.0 °F 30.2 in NW 20 mph 20 mph 54% 0.000 in 0.00 W/m2
22:09 38.0 °F 23.0 °F 30.2 in NW 18 mph 25 mph 54% 0.000 in 0.00 W/m2
22:14 38.0 °F 23.0 °F 30.2 in NW 19 mph 19 mph 54% 0.000 in 0.00 W/m2
22:19 38.0 °F 23.0 °F 30.2 in NW 21 mph 21 mph 54% 0.000 in 0.00 W/m2
22:24 38.0 °F 23.0 °F 30.2 in NW 21 mph 21 mph 55% 0.000 in 0.00 W/m2
22:29 38.0 °F 23.0 °F 30.2 in NW 14 mph 21 mph 55% 0.000 in 0.00 W/m2
22:34 37.0 °F 23.0 °F 30.2 in NW 15 mph 15 mph 55% 0.000 in 0.00 W/m2
22:39 37.0 °F 23.0 °F 30.2 in NW 15 mph 15 mph 55% 0.000 in 0.00 W/m2
22:44 37.0 °F 23.0 °F 30.2 in NW 13 mph 15 mph 56% 0.000 in 0.00 W/m2
22:49 37.0 °F 23.0 °F 30.2 in NW 18 mph 18 mph 56% 0.000 in 0.00 W/m2
22:54 37.0 °F 23.0 °F 30.2 in NW 13 mph 15 mph 56% 0.000 in 0.00 W/m2
22:59 37.0 °F 23.0 °F 30.2 in NW 14 mph 15 mph 56% 0.000 in 0.00 W/m2
23:04 37.0 °F 23.0 °F 30.2 in NW 13 mph 15 mph 56% 0.000 in 0.00 W/m2
23:09 37.0 °F 23.0 °F 30.2 in NW 15 mph 16 mph 57% 0.000 in 0.00 W/m2
23:14 37.0 °F 23.0 °F 30.2 in WNW 15 mph 16 mph 57% 0.000 in 0.00 W/m2
23:19 37.0 °F 23.0 °F 30.2 in NW 15 mph 18 mph 57% 0.000 in 0.00 W/m2
23:24 37.0 °F 23.0 °F 30.2 in NW 16 mph 16 mph 57% 0.000 in 0.00 W/m2
23:29 37.0 °F 23.0 °F 30.2 in NW 13 mph 17 mph 57% 0.000 in 0.00 W/m2
23:34 36.0 °F 23.0 °F 30.2 in NW 16 mph 17 mph 57% 0.000 in 0.00 W/m2
23:39 36.0 °F 23.0 °F 30.2 in NW 12 mph 17 mph 58% 0.000 in 0.00 W/m2
23:44 36.0 °F 23.0 °F 30.2 in NW 13 mph 15 mph 58% 0.000 in 0.00 W/m2
23:49 36.0 °F 23.0 °F 30.2 in NW 16 mph 19 mph 58% 0.000 in 0.00 W/m2
23:54 36.0 °F 23.0 °F 30.2 in NW 12 mph 19 mph 58% 0.000 in 0.00 W/m2
23:59 36.0 °F 23.0 °F 30.2 in NW 15 mph 17 mph 58% 0.000 in 0.00 W/m2
Villages of Bridgestone, Spring, TX USA
Compliments of Weather Underground - 4 mb